sensor_id;sensor_type;location;lat;lon;timestamp;pressure;altitude;pressure_sealevel;temperature;humidity
8318;BME280;4196;48.926;8.964;2023-05-01T00:00:43;99011.09;;;6.59;100.00
8318;BME280;4196;48.926;8.964;2023-05-01T00:03:30;99035.19;;;6.64;100.00
8318;BME280;4196;48.926;8.964;2023-05-01T00:06:17;99026.53;;;6.56;100.00
8318;BME280;4196;48.926;8.964;2023-05-01T00:09:06;99035.16;;;6.61;100.00
8318;BME280;4196;48.926;8.964;2023-05-01T00:11:53;99000.09;;;6.69;100.00
8318;BME280;4196;48.926;8.964;2023-05-01T00:14:39;99014.88;;;6.85;100.00
8318;BME280;4196;48.926;8.964;2023-05-01T00:17:26;99029.59;;;6.98;100.00
8318;BME280;4196;48.926;8.964;2023-05-01T00:20:16;98952.72;;;6.51;100.00
8318;BME280;4196;48.926;8.964;2023-05-01T00:23:03;99008.75;;;6.75;100.00
8318;BME280;4196;48.926;8.964;2023-05-01T00:25:49;99017.34;;;6.76;100.00
8318;BME280;4196;48.926;8.964;2023-05-01T00:28:35;99013.81;;;6.69;100.00
8318;BME280;4196;48.926;8.964;2023-05-01T00:31:23;99019.81;;;6.67;100.00
8318;BME280;4196;48.926;8.964;2023-05-01T00:34:10;99013.63;;;6.52;100.00
8318;BME280;4196;48.926;8.964;2023-05-01T00:36:57;98983.63;;;6.54;100.00
8318;BME280;4196;48.926;8.964;2023-05-01T00:39:44;98994.00;;;6.59;100.00
8318;BME280;4196;48.926;8.964;2023-05-01T00:42:35;98995.66;;;6.56;100.00
8318;BME280;4196;48.926;8.964;2023-05-01T00:45:24;98931.69;;;6.15;100.00
8318;BME280;4196;48.926;8.964;2023-05-01T00:48:10;98963.72;;;6.40;100.00
8318;BME280;4196;48.926;8.964;2023-05-01T00:50:57;98993.88;;;6.50;100.00
8318;BME280;4196;48.926;8.964;2023-05-01T00:53:45;98988.91;;;6.65;100.00
8318;BME280;4196;48.926;8.964;2023-05-01T00:56:32;98982.72;;;6.51;100.00
8318;BME280;4196;48.926;8.964;2023-05-01T00:59:19;98987.28;;;6.72;100.00
8318;BME280;4196;48.926;8.964;2023-05-01T01:02:05;98988.72;;;6.51;100.00
8318;BME280;4196;48.926;8.964;2023-05-01T01:04:55;98976.66;;;6.44;100.00
8318;BME280;4196;48.926;8.964;2023-05-01T01:07:50;98981.81;;;6.47;100.00
8318;BME280;4196;48.926;8.964;2023-05-01T01:10:53;98961.06;;;6.31;100.00
8318;BME280;4196;48.926;8.964;2023-05-01T01:13:46;98948.09;;;6.23;100.00
8318;BME280;4196;48.926;8.964;2023-05-01T01:16:47;98968.81;;;6.34;100.00
8318;BME280;4196;48.926;8.964;2023-05-01T01:19:57;98969.91;;;6.52;100.00
8318;BME280;4196;48.926;8.964;2023-05-01T01:23:03;98966.28;;;6.38;100.00
8318;BME280;4196;48.926;8.964;2023-05-01T01:35:30;98948.91;;;6.19;100.00
8318;BME280;4196;48.926;8.964;2023-05-01T01:38:45;98948.06;;;6.20;100.00
8318;BME280;4196;48.926;8.964;2023-05-01T01:41:32;98949.78;;;6.21;100.00
8318;BME280;4196;48.926;8.964;2023-05-01T01:44:42;98953.25;;;6.24;100.00
8318;BME280;4196;48.926;8.964;2023-05-01T01:47:33;98930.81;;;6.14;100.00
8318;BME280;4196;48.926;8.964;2023-05-01T01:50:23;98947.25;;;6.25;100.00
8318;BME280;4196;48.926;8.964;2023-05-01T01:53:15;98945.56;;;6.26;100.00
8318;BME280;4196;48.926;8.964;2023-05-01T01:56:05;98935.28;;;6.29;100.00
8318;BME280;4196;48.926;8.964;2023-05-01T01:58:53;98931.81;;;6.24;100.00
8318;BME280;4196;48.926;8.964;2023-05-01T02:01:41;98937.47;;;6.67;100.00
8318;BME280;4196;48.926;8.964;2023-05-01T02:04:30;98916.91;;;6.67;100.00
8318;BME280;4196;48.926;8.964;2023-05-01T02:07:18;98937.59;;;6.77;100.00
8318;BME280;4196;48.926;8.964;2023-05-01T02:10:07;98931.31;;;6.54;100.00
8318;BME280;4196;48.926;8.964;2023-05-01T02:12:56;98921.72;;;6.39;100.00
8318;BME280;4196;48.926;8.964;2023-05-01T02:15:44;98926.78;;;6.32;100.00
8318;BME280;4196;48.926;8.964;2023-05-01T02:18:33;98932.91;;;6.41;100.00
8318;BME280;4196;48.926;8.964;2023-05-01T02:21:21;98924.47;;;6.53;100.00
8318;BME280;4196;48.926;8.964;2023-05-01T02:24:09;98921.00;;;6.51;100.00
8318;BME280;4196;48.926;8.964;2023-05-01T02:27:01;98927.72;;;6.38;100.00
8318;BME280;4196;48.926;8.964;2023-05-01T02:29:52;98929.47;;;6.41;100.00
8318;BME280;4196;48.926;8.964;2023-05-01T02:32:39;98924.38;;;6.45;100.00
8318;BME280;4196;48.926;8.964;2023-05-01T02:35:26;98921.72;;;6.39;100.00
8318;BME280;4196;48.926;8.964;2023-05-01T02:38:13;98915.72;;;6.39;100.00
8318;BME280;4196;48.926;8.964;2023-05-01T02:41:01;98908.81;;;6.36;100.00
8318;BME280;4196;48.926;8.964;2023-05-01T02:43:53;98914.03;;;6.42;100.00
8318;BME280;4196;48.926;8.964;2023-05-01T02:46:42;98895.22;;;6.45;100.00
8318;BME280;4196;48.926;8.964;2023-05-01T02:49:30;98905.59;;;6.52;100.00
8318;BME280;4196;48.926;8.964;2023-05-01T02:52:18;98913.44;;;6.65;100.00
8318;BME280;4196;48.926;8.964;2023-05-01T02:55:08;98910.00;;;6.66;100.00
8318;BME280;4196;48.926;8.964;2023-05-01T02:57:58;98891.03;;;6.54;100.00
8318;BME280;4196;48.926;8.964;2023-05-01T03:00:47;98891.88;;;6.55;100.00
8318;BME280;4196;48.926;8.964;2023-05-01T03:03:35;98901.38;;;6.62;100.00
8318;BME280;4196;48.926;8.964;2023-05-01T03:06:22;98901.44;;;6.64;100.00
8318;BME280;4196;48.926;8.964;2023-05-01T03:09:09;98877.38;;;6.60;100.00
8318;BME280;4196;48.926;8.964;2023-05-01T03:11:57;98904.16;;;6.77;100.00
8318;BME280;4196;48.926;8.964;2023-05-01T03:14:43;98898.97;;;6.76;100.00
8318;BME280;4196;48.926;8.964;2023-05-01T03:17:29;98898.06;;;6.72;100.00
8318;BME280;4196;48.926;8.964;2023-05-01T03:20:16;98893.78;;;6.71;100.00
8318;BME280;4196;48.926;8.964;2023-05-01T03:23:02;98894.59;;;6.67;100.00
8318;BME280;4196;48.926;8.964;2023-05-01T03:25:50;98900.66;;;6.72;100.00
8318;BME280;4196;48.926;8.964;2023-05-01T03:28:37;98880.84;;;6.65;100.00
8318;BME280;4196;48.926;8.964;2023-05-01T03:31:24;98881.78;;;6.70;100.00
8318;BME280;4196;48.926;8.964;2023-05-01T03:34:12;98872.34;;;6.71;100.00
8318;BME280;4196;48.926;8.964;2023-05-01T03:36:59;98884.53;;;6.90;100.00
8318;BME280;4196;48.926;8.964;2023-05-01T03:39:46;98869.81;;;6.77;100.00
8318;BME280;4196;48.926;8.964;2023-05-01T03:43:01;98878.44;;;6.82;100.00
8318;BME280;4196;48.926;8.964;2023-05-01T03:45:49;98864.66;;;6.74;100.00
8318;BME280;4196;48.926;8.964;2023-05-01T03:48:37;98854.53;;;6.94;100.00
8318;BME280;4196;48.926;8.964;2023-05-01T03:51:24;98867.66;;;7.26;100.00
8318;BME280;4196;48.926;8.964;2023-05-01T03:54:12;98874.47;;;7.21;100.00
8318;BME280;4196;48.926;8.964;2023-05-01T03:57:23;98865.03;;;7.20;100.00
8318;BME280;4196;48.926;8.964;2023-05-01T04:00:10;98882.22;;;7.24;100.00
8318;BME280;4196;48.926;8.964;2023-05-01T04:03:05;98864.94;;;7.08;100.00
8318;BME280;4196;48.926;8.964;2023-05-01T04:05:54;98877.75;;;7.01;100.00
8318;BME280;4196;48.926;8.964;2023-05-01T04:08:40;98834.53;;;6.64;100.00
8318;BME280;4196;48.926;8.964;2023-05-01T04:11:27;98873.31;;;6.82;100.00
8318;BME280;4196;48.926;8.964;2023-05-01T04:14:13;98874.16;;;6.83;100.00
8318;BME280;4196;48.926;8.964;2023-05-01T04:17:00;98877.63;;;6.86;100.00
8318;BME280;4196;48.926;8.964;2023-05-01T04:19:51;98883.88;;;7.14;100.00
8318;BME280;4196;48.926;8.964;2023-05-01T04:22:38;98873.63;;;7.19;100.00
8318;BME280;4196;48.926;8.964;2023-05-01T04:25:25;98855.44;;;7.00;100.00
8318;BME280;4196;48.926;8.964;2023-05-01T04:28:18;98855.44;;;7.02;100.00
8318;BME280;4196;48.926;8.964;2023-05-01T04:31:04;98864.97;;;7.12;100.00
8318;BME280;4196;48.926;8.964;2023-05-01T04:33:51;98869.31;;;7.21;100.00
8318;BME280;4196;48.926;8.964;2023-05-01T04:36:38;98844.50;;;7.32;100.00
8318;BME280;4196;48.926;8.964;2023-05-01T04:39:25;98863.53;;;7.49;100.00
8318;BME280;4196;48.926;8.964;2023-05-01T04:42:12;98867.00;;;7.56;100.00
8318;BME280;4196;48.926;8.964;2023-05-01T04:44:58;98847.97;;;7.34;100.00
8318;BME280;4196;48.926;8.964;2023-05-01T04:47:53;98866.19;;;7.63;100.00
8318;BME280;4196;48.926;8.964;2023-05-01T04:50:39;98844.69;;;7.61;100.00
8318;BME280;4196;48.926;8.964;2023-05-01T04:53:26;98845.50;;;7.51;100.00
8318;BME280;4196;48.926;8.964;2023-05-01T04:56:13;98868.00;;;7.78;100.00
8318;BME280;4196;48.926;8.964;2023-05-01T04:59:00;98869.66;;;7.73;100.00
8318;BME280;4196;48.926;8.964;2023-05-01T05:01:48;98814.50;;;7.39;100.00
8318;BME280;4196;48.926;8.964;2023-05-01T05:04:35;98873.19;;;7.87;100.00
8318;BME280;4196;48.926;8.964;2023-05-01T05:07:22;98862.00;;;7.84;100.00
8318;BME280;4196;48.926;8.964;2023-05-01T05:10:26;98870.59;;;7.87;100.00
8318;BME280;4196;48.926;8.964;2023-05-01T05:13:39;98862.78;;;7.69;100.00
8318;BME280;4196;48.926;8.964;2023-05-01T05:16:29;98865.38;;;7.77;100.00
8318;BME280;4196;48.926;8.964;2023-05-01T05:19:16;98877.47;;;7.81;100.00
8318;BME280;4196;48.926;8.964;2023-05-01T05:22:03;98876.66;;;7.92;100.00
8318;BME280;4196;48.926;8.964;2023-05-01T05:24:56;98866.28;;;7.83;100.00
8318;BME280;4196;48.926;8.964;2023-05-01T05:27:49;98856.00;;;7.82;100.00
8318;BME280;4196;48.926;8.964;2023-05-01T05:30:36;98869.81;;;7.97;100.00
8318;BME280;4196;48.926;8.964;2023-05-01T05:33:24;98880.19;;;8.16;100.00
8318;BME280;4196;48.926;8.964;2023-05-01T05:36:10;98850.97;;;8.11;100.00
8318;BME280;4196;48.926;8.964;2023-05-01T05:39:00;98867.34;;;8.28;100.00
8318;BME280;4196;48.926;8.964;2023-05-01T05:41:47;98871.72;;;8.41;100.00
8318;BME280;4196;48.926;8.964;2023-05-01T05:44:34;98865.66;;;8.29;100.00
8318;BME280;4196;48.926;8.964;2023-05-01T05:47:21;98876.91;;;8.44;100.00
8318;BME280;4196;48.926;8.964;2023-05-01T05:50:08;98864.81;;;8.36;100.00
8318;BME280;4196;48.926;8.964;2023-05-01T05:52:55;98868.31;;;8.52;100.00
8318;BME280;4196;48.926;8.964;2023-05-01T05:55:41;98876.06;;;8.56;100.00
8318;BME280;4196;48.926;8.964;2023-05-01T05:58:29;98825.28;;;8.44;100.00
8318;BME280;4196;48.926;8.964;2023-05-01T06:01:16;98872.69;;;8.85;100.00
8318;BME280;4196;48.926;8.964;2023-05-01T06:04:03;98870.94;;;8.87;100.00
8318;BME280;4196;48.926;8.964;2023-05-01T06:06:52;98882.19;;;9.06;100.00
8318;BME280;4196;48.926;8.964;2023-05-01T06:09:39;98877.84;;;9.08;100.00
8318;BME280;4196;48.926;8.964;2023-05-01T06:12:26;98879.56;;;9.27;100.00
8318;BME280;4196;48.926;8.964;2023-05-01T06:15:13;98878.72;;;9.31;100.00
8318;BME280;4196;48.926;8.964;2023-05-01T06:18:08;98877.88;;;9.29;100.00
8318;BME280;4196;48.926;8.964;2023-05-01T06:20:55;98877.00;;;9.36;100.00
8318;BME280;4196;48.926;8.964;2023-05-01T06:23:42;98871.81;;;9.38;100.00
8318;BME280;4196;48.926;8.964;2023-05-01T06:26:43;98870.94;;;9.51;100.00
8318;BME280;4196;48.926;8.964;2023-05-01T06:29:29;98876.94;;;9.61;100.00
8318;BME280;4196;48.926;8.964;2023-05-01T06:32:16;98880.38;;;9.80;100.00
8318;BME280;4196;48.926;8.964;2023-05-01T06:35:04;98871.72;;;9.82;100.00
8318;BME280;4196;48.926;8.964;2023-05-01T06:37:50;98878.59;;;9.99;100.00
8318;BME280;4196;48.926;8.964;2023-05-01T06:40:38;98883.72;;;10.20;100.00
8318;BME280;4196;48.926;8.964;2023-05-01T06:43:24;98869.03;;;10.28;100.00
8318;BME280;4196;48.926;8.964;2023-05-01T06:46:16;98880.19;;;10.43;100.00
8318;BME280;4196;48.926;8.964;2023-05-01T06:49:02;98871.41;;;10.68;100.00
8318;BME280;4196;48.926;8.964;2023-05-01T06:51:49;98769.88;;;10.20;100.00
8318;BME280;4196;48.926;8.964;2023-05-01T06:54:36;98888.47;;;11.00;100.00
8318;BME280;4196;48.926;8.964;2023-05-01T06:57:22;98884.19;;;10.94;100.00
8318;BME280;4196;48.926;8.964;2023-05-01T07:00:09;98881.59;;;10.93;100.00
8318;BME280;4196;48.926;8.964;2023-05-01T07:02:56;98883.28;;;11.00;100.00
8318;BME280;4196;48.926;8.964;2023-05-01T07:05:42;98887.56;;;11.05;100.00
8318;BME280;4196;48.926;8.964;2023-05-01T07:08:29;98898.75;;;11.12;100.00
8318;BME280;4196;48.926;8.964;2023-05-01T07:11:16;98900.38;;;11.22;100.00
8318;BME280;4196;48.926;8.964;2023-05-01T07:14:02;98889.19;;;11.16;100.00
8318;BME280;4196;48.926;8.964;2023-05-01T07:16:49;98898.41;;;11.52;100.00
8318;BME280;4196;48.926;8.964;2023-05-01T07:19:36;98888.03;;;11.52;100.00
8318;BME280;4196;48.926;8.964;2023-05-01T07:22:23;98887.78;;;11.79;100.00
8318;BME280;4196;48.926;8.964;2023-05-01T07:25:09;98892.81;;;11.95;100.00
8318;BME280;4196;48.926;8.964;2023-05-01T07:27:55;98898.97;;;11.83;100.00
8318;BME280;4196;48.926;8.964;2023-05-01T07:30:42;98879.97;;;11.84;100.00
8318;BME280;4196;48.926;8.964;2023-05-01T07:33:28;98896.50;;;11.72;100.00
8318;BME280;4196;48.926;8.964;2023-05-01T07:36:15;98870.66;;;11.61;100.00
8318;BME280;4196;48.926;8.964;2023-05-01T07:39:04;98872.28;;;11.70;100.00
8318;BME280;4196;48.926;8.964;2023-05-01T07:41:51;98878.06;;;12.00;100.00
8318;BME280;4196;48.926;8.964;2023-05-01T07:44:38;98865.91;;;12.05;100.00
8318;BME280;4196;48.926;8.964;2023-05-01T07:47:24;98816.84;;;11.80;100.00
8318;BME280;4196;48.926;8.964;2023-05-01T07:50:12;98869.66;;;12.52;100.00
8318;BME280;4196;48.926;8.964;2023-05-01T07:52:59;98865.72;;;12.84;96.33
8318;BME280;4196;48.926;8.964;2023-05-01T07:55:46;98847.16;;;13.08;88.64
8318;BME280;4196;48.926;8.964;2023-05-01T07:58:33;98850.97;;;13.40;87.85
8318;BME280;4196;48.926;8.964;2023-05-01T08:01:19;98814.72;;;12.78;86.50
8318;BME280;4196;48.926;8.964;2023-05-01T08:04:06;98848.03;;;13.07;89.27
8318;BME280;4196;48.926;8.964;2023-05-01T08:06:52;98866.78;;;13.27;92.77
8318;BME280;4196;48.926;8.964;2023-05-01T08:09:39;98857.84;;;13.44;86.18
8318;BME280;4196;48.926;8.964;2023-05-01T08:12:27;98867.34;;;13.46;87.40
8318;BME280;4196;48.926;8.964;2023-05-01T08:15:14;98867.81;;;13.70;86.19
8318;BME280;4196;48.926;8.964;2023-05-01T08:18:00;98839.03;;;13.77;86.14
8318;BME280;4196;48.926;8.964;2023-05-01T08:20:47;98876.25;;;14.24;85.98
8318;BME280;4196;48.926;8.964;2023-05-01T08:23:34;98878.56;;;14.40;81.49
8318;BME280;4196;48.926;8.964;2023-05-01T08:26:20;98878.09;;;14.19;81.53
8318;BME280;4196;48.926;8.964;2023-05-01T08:29:08;98851.31;;;14.14;80.40
8318;BME280;4196;48.926;8.964;2023-05-01T08:31:57;98876.88;;;14.37;78.51
8318;BME280;4196;48.926;8.964;2023-05-01T08:34:44;98862.69;;;14.09;81.82
8318;BME280;4196;48.926;8.964;2023-05-01T08:37:31;98858.19;;;14.18;80.37
8318;BME280;4196;48.926;8.964;2023-05-01T08:40:17;98858.53;;;14.00;81.21
8318;BME280;4196;48.926;8.964;2023-05-01T08:43:04;98870.72;;;13.99;79.98
8318;BME280;4196;48.926;8.964;2023-05-01T08:45:52;98860.09;;;13.64;81.78
8318;BME280;4196;48.926;8.964;2023-05-01T08:48:42;98866.84;;;13.74;81.27
8318;BME280;4196;48.926;8.964;2023-05-01T08:51:30;98853.63;;;13.85;79.76
8318;BME280;4196;48.926;8.964;2023-05-01T08:54:19;98870.25;;;14.22;78.09
8318;BME280;4196;48.926;8.964;2023-05-01T08:57:08;98841.72;;;14.58;77.14
8318;BME280;4196;48.926;8.964;2023-05-01T08:59:56;98864.25;;;14.98;76.90
8318;BME280;4196;48.926;8.964;2023-05-01T09:02:46;98850.50;;;15.29;72.37
8318;BME280;4196;48.926;8.964;2023-05-01T09:05:33;98861.06;;;15.57;73.09
8318;BME280;4196;48.926;8.964;2023-05-01T09:08:20;98845.13;;;15.69;72.39
8318;BME280;4196;48.926;8.964;2023-05-01T09:11:06;98849.63;;;15.61;74.96
8318;BME280;4196;48.926;8.964;2023-05-01T09:13:53;98860.69;;;15.72;75.51
8318;BME280;4196;48.926;8.964;2023-05-01T09:16:44;98844.63;;;15.53;72.04
8318;BME280;4196;48.926;8.964;2023-05-01T09:19:30;98865.97;;;15.70;72.01
8318;BME280;4196;48.926;8.964;2023-05-01T09:22:17;98857.78;;;15.83;70.85
8318;BME280;4196;48.926;8.964;2023-05-01T09:25:05;98792.28;;;15.27;72.26
8318;BME280;4196;48.926;8.964;2023-05-01T09:27:52;98850.81;;;16.14;74.58
8318;BME280;4196;48.926;8.964;2023-05-01T09:30:38;98869.75;;;16.52;68.27
8318;BME280;4196;48.926;8.964;2023-05-01T09:33:25;98862.16;;;16.73;68.08
8318;BME280;4196;48.926;8.964;2023-05-01T09:36:15;98850.22;;;16.34;68.81
8318;BME280;4196;48.926;8.964;2023-05-01T09:39:02;98863.16;;;16.98;67.15
8318;BME280;4196;48.926;8.964;2023-05-01T09:41:50;98805.00;;;16.60;66.75
8318;BME280;4196;48.926;8.964;2023-05-01T09:44:40;98798.47;;;16.47;67.57
8318;BME280;4196;48.926;8.964;2023-05-01T09:47:28;98858.53;;;17.06;70.32
8318;BME280;4196;48.926;8.964;2023-05-01T09:50:33;98856.00;;;17.03;64.86
8318;BME280;4196;48.926;8.964;2023-05-01T09:53:34;98841.59;;;16.62;66.64
8318;BME280;4196;48.926;8.964;2023-05-01T09:56:22;98873.28;;;16.51;67.93
8318;BME280;4196;48.926;8.964;2023-05-01T09:59:17;98865.25;;;16.28;67.13
8318;BME280;4196;48.926;8.964;2023-05-01T10:02:04;98862.53;;;16.60;64.11
8318;BME280;4196;48.926;8.964;2023-05-01T10:04:57;98867.91;;;16.85;63.48
8318;BME280;4196;48.926;8.964;2023-05-01T10:07:59;98856.59;;;17.11;63.71
8318;BME280;4196;48.926;8.964;2023-05-01T10:11:02;98862.59;;;17.67;60.33
8318;BME280;4196;48.926;8.964;2023-05-01T10:14:08;98870.56;;;17.90;56.76
8318;BME280;4196;48.926;8.964;2023-05-01T10:16:55;98807.69;;;17.40;57.66
8318;BME280;4196;48.926;8.964;2023-05-01T10:19:43;98845.69;;;17.77;61.99
8318;BME280;4196;48.926;8.964;2023-05-01T10:22:30;98852.31;;;17.62;59.22
8318;BME280;4196;48.926;8.964;2023-05-01T10:25:16;98852.66;;;17.51;58.44
8318;BME280;4196;48.926;8.964;2023-05-01T10:28:04;98854.56;;;17.21;58.03
8318;BME280;4196;48.926;8.964;2023-05-01T10:30:51;98834.13;;;17.06;60.56
8318;BME280;4196;48.926;8.964;2023-05-01T10:33:39;98860.91;;;17.66;58.79
8318;BME280;4196;48.926;8.964;2023-05-01T10:36:39;98853.94;;;17.91;58.65
8318;BME280;4196;48.926;8.964;2023-05-01T10:39:32;98841.94;;;18.32;55.34
8318;BME280;4196;48.926;8.964;2023-05-01T10:42:19;98851.38;;;18.60;56.19
8318;BME280;4196;48.926;8.964;2023-05-01T10:45:29;98852.41;;;19.01;57.12
8318;BME280;4196;48.926;8.964;2023-05-01T10:51:30;98838.53;;;19.20;56.13
8318;BME280;4196;48.926;8.964;2023-05-01T10:57:04;98824.91;;;19.10;54.39
8318;BME280;4196;48.926;8.964;2023-05-01T11:02:44;98818.94;;;19.06;54.87
8318;BME280;4196;48.926;8.964;2023-05-01T11:06:06;98838.22;;;19.05;52.82
8318;BME280;4196;48.926;8.964;2023-05-01T11:08:53;98835.91;;;19.20;52.42
8318;BME280;4196;48.926;8.964;2023-05-01T11:17:48;98836.56;;;19.25;54.10
8318;BME280;4196;48.926;8.964;2023-05-01T11:23:22;98827.94;;;19.21;55.51
8318;BME280;4196;48.926;8.964;2023-05-01T11:26:08;98821.56;;;19.06;54.70
8318;BME280;4196;48.926;8.964;2023-05-01T11:28:58;98816.38;;;19.05;57.30
8318;BME280;4196;48.926;8.964;2023-05-01T11:31:47;98824.03;;;18.66;57.11
8318;BME280;4196;48.926;8.964;2023-05-01T11:34:34;98803.00;;;18.45;57.39
8318;BME280;4196;48.926;8.964;2023-05-01T11:37:42;98815.13;;;18.70;58.28
8318;BME280;4196;48.926;8.964;2023-05-01T11:40:33;98811.81;;;18.88;60.48
8318;BME280;4196;48.926;8.964;2023-05-01T11:43:20;98825.31;;;19.01;59.36
8318;BME280;4196;48.926;8.964;2023-05-01T11:46:07;98813.97;;;19.00;60.42
8318;BME280;4196;48.926;8.964;2023-05-01T11:48:59;98818.69;;;19.13;59.00
8318;BME280;4196;48.926;8.964;2023-05-01T11:51:55;98810.69;;;19.16;58.21
8318;BME280;4196;48.926;8.964;2023-05-01T11:54:47;98732.91;;;18.72;59.11
8318;BME280;4196;48.926;8.964;2023-05-01T11:57:51;98812.47;;;19.36;60.16
8318;BME280;4196;48.926;8.964;2023-05-01T12:00:42;98801.25;;;19.12;58.95
8318;BME280;4196;48.926;8.964;2023-05-01T12:03:39;98792.84;;;19.24;60.08
8318;BME280;4196;48.926;8.964;2023-05-01T12:06:40;98751.78;;;19.23;58.12
8318;BME280;4196;48.926;8.964;2023-05-01T12:09:31;98804.75;;;18.23;61.54
8318;BME280;4196;48.926;8.964;2023-05-01T12:12:19;98788.88;;;18.26;61.51
8318;BME280;4196;48.926;8.964;2023-05-01T12:15:05;98775.25;;;18.62;61.64
8318;BME280;4196;48.926;8.964;2023-05-01T12:17:52;98793.41;;;18.66;59.82
8318;BME280;4196;48.926;8.964;2023-05-01T12:20:39;98803.75;;;19.15;59.17
8318;BME280;4196;48.926;8.964;2023-05-01T12:23:34;98804.94;;;19.28;57.34
8318;BME280;4196;48.926;8.964;2023-05-01T12:26:23;98801.69;;;19.21;56.54
8318;BME280;4196;48.926;8.964;2023-05-01T12:29:13;98804.25;;;18.35;58.51
8318;BME280;4196;48.926;8.964;2023-05-01T12:31:59;98806.94;;;18.33;61.16
8318;BME280;4196;48.926;8.964;2023-05-01T12:34:46;98798.34;;;18.30;60.67
8318;BME280;4196;48.926;8.964;2023-05-01T12:37:33;98809.28;;;18.41;60.08
8318;BME280;4196;48.926;8.964;2023-05-01T12:40:20;98784.38;;;18.51;59.77
8318;BME280;4196;48.926;8.964;2023-05-01T12:43:08;98813.34;;;18.94;57.52
8318;BME280;4196;48.926;8.964;2023-05-01T12:45:54;98808.03;;;18.95;57.15
8318;BME280;4196;48.926;8.964;2023-05-01T12:48:41;98806.75;;;19.05;55.78
8318;BME280;4196;48.926;8.964;2023-05-01T12:51:28;98809.91;;;19.14;55.99
8318;BME280;4196;48.926;8.964;2023-05-01T12:54:22;98809.75;;;18.96;55.95
8318;BME280;4196;48.926;8.964;2023-05-01T12:57:10;98795.69;;;18.53;57.03
8318;BME280;4196;48.926;8.964;2023-05-01T12:59:59;98790.34;;;18.56;57.19
8318;BME280;4196;48.926;8.964;2023-05-01T13:02:47;98804.66;;;18.70;57.95
8318;BME280;4196;48.926;8.964;2023-05-01T13:05:34;98798.66;;;18.44;56.21
8318;BME280;4196;48.926;8.964;2023-05-01T13:08:39;98793.06;;;18.53;56.55
8318;BME280;4196;48.926;8.964;2023-05-01T13:11:26;98795.16;;;18.67;55.66
8318;BME280;4196;48.926;8.964;2023-05-01T13:14:12;98785.25;;;18.52;54.59
8318;BME280;4196;48.926;8.964;2023-05-01T13:16:59;98792.75;;;18.39;53.70
8318;BME280;4196;48.926;8.964;2023-05-01T13:19:52;98779.88;;;18.78;53.49
8318;BME280;4196;48.926;8.964;2023-05-01T13:22:39;98787.78;;;19.60;53.48
8318;BME280;4196;48.926;8.964;2023-05-01T13:25:26;98765.91;;;19.80;53.29
8318;BME280;4196;48.926;8.964;2023-05-01T13:28:17;98770.91;;;20.43;49.74
8318;BME280;4196;48.926;8.964;2023-05-01T13:31:10;98781.09;;;20.50;53.54
8318;BME280;4196;48.926;8.964;2023-05-01T13:33:58;98783.66;;;20.33;50.17
8318;BME280;4196;48.926;8.964;2023-05-01T13:36:45;98780.81;;;20.19;50.56
8318;BME280;4196;48.926;8.964;2023-05-01T13:39:31;98776.56;;;19.57;49.62
8318;BME280;4196;48.926;8.964;2023-05-01T13:42:22;98785.13;;;18.78;52.09
8318;BME280;4196;48.926;8.964;2023-05-01T13:45:11;98784.91;;;18.83;52.95
8318;BME280;4196;48.926;8.964;2023-05-01T13:47:57;98783.63;;;18.93;53.14
8318;BME280;4196;48.926;8.964;2023-05-01T13:50:44;98780.63;;;19.02;57.70
8318;BME280;4196;48.926;8.964;2023-05-01T13:53:30;98777.78;;;19.07;52.93
8318;BME280;4196;48.926;8.964;2023-05-01T13:56:18;98780.50;;;19.05;53.66
8318;BME280;4196;48.926;8.964;2023-05-01T13:59:04;98774.06;;;19.13;53.53
8318;BME280;4196;48.926;8.964;2023-05-01T14:01:51;98723.31;;;18.71;51.24
8318;BME280;4196;48.926;8.964;2023-05-01T14:04:39;98730.91;;;18.55;51.04
8318;BME280;4196;48.926;8.964;2023-05-01T14:07:26;98761.84;;;18.69;51.42
8318;BME280;4196;48.926;8.964;2023-05-01T14:10:12;98753.13;;;18.69;52.86
8318;BME280;4196;48.926;8.964;2023-05-01T14:12:59;98755.13;;;18.62;52.85
8318;BME280;4196;48.926;8.964;2023-05-01T14:15:46;98760.91;;;18.72;52.73
8318;BME280;4196;48.926;8.964;2023-05-01T14:18:33;98765.41;;;18.67;50.96
8318;BME280;4196;48.926;8.964;2023-05-01T14:21:22;98759.19;;;18.71;50.54
8318;BME280;4196;48.926;8.964;2023-05-01T14:24:09;98752.56;;;19.04;50.45
8318;BME280;4196;48.926;8.964;2023-05-01T14:26:55;98758.69;;;19.85;50.59
8318;BME280;4196;48.926;8.964;2023-05-01T14:29:43;98756.66;;;20.11;47.85
8318;BME280;4196;48.926;8.964;2023-05-01T14:32:29;98762.53;;;20.16;47.78
8318;BME280;4196;48.926;8.964;2023-05-01T14:35:23;98772.47;;;19.90;49.59
8318;BME280;4196;48.926;8.964;2023-05-01T14:38:11;98774.31;;;19.47;49.05
8318;BME280;4196;48.926;8.964;2023-05-01T14:40:57;98783.72;;;19.33;50.09
8318;BME280;4196;48.926;8.964;2023-05-01T14:43:44;98763.59;;;19.33;53.95
8318;BME280;4196;48.926;8.964;2023-05-01T14:46:32;98773.03;;;19.37;53.71
8318;BME280;4196;48.926;8.964;2023-05-01T14:49:22;98756.50;;;19.15;52.87
8318;BME280;4196;48.926;8.964;2023-05-01T14:52:09;98758.47;;;19.30;50.01
8318;BME280;4196;48.926;8.964;2023-05-01T14:54:57;98777.88;;;19.46;50.61
8318;BME280;4196;48.926;8.964;2023-05-01T14:57:44;98771.19;;;19.19;50.52
8318;BME280;4196;48.926;8.964;2023-05-01T15:00:31;98736.53;;;18.68;51.55
8318;BME280;4196;48.926;8.964;2023-05-01T15:03:18;98794.00;;;18.96;53.71
8318;BME280;4196;48.926;8.964;2023-05-01T15:06:05;98795.75;;;18.96;54.90
8318;BME280;4196;48.926;8.964;2023-05-01T15:08:51;98789.78;;;18.92;52.24
8318;BME280;4196;48.926;8.964;2023-05-01T15:11:39;98776.44;;;18.76;52.81
8318;BME280;4196;48.926;8.964;2023-05-01T15:14:26;98772.09;;;18.53;53.27
8318;BME280;4196;48.926;8.964;2023-05-01T15:17:12;98784.28;;;18.54;59.28
8318;BME280;4196;48.926;8.964;2023-05-01T15:19:59;98773.13;;;18.49;61.08
8318;BME280;4196;48.926;8.964;2023-05-01T15:22:46;98776.34;;;18.34;62.61
8318;BME280;4196;48.926;8.964;2023-05-01T15:25:32;98772.72;;;18.15;62.12
8318;BME280;4196;48.926;8.964;2023-05-01T15:28:18;98766.72;;;17.64;63.19
8318;BME280;4196;48.926;8.964;2023-05-01T15:31:05;98782.78;;;17.78;63.82
8318;BME280;4196;48.926;8.964;2023-05-01T15:33:52;98791.06;;;17.91;62.40
8318;BME280;4196;48.926;8.964;2023-05-01T15:36:38;98787.94;;;17.56;64.41
8318;BME280;4196;48.926;8.964;2023-05-01T15:39:25;98781.41;;;17.43;63.96
8318;BME280;4196;48.926;8.964;2023-05-01T15:42:11;98744.72;;;17.20;66.33
8318;BME280;4196;48.926;8.964;2023-05-01T15:44:57;98767.34;;;17.21;65.63